createdAt,value
2022-12-18T00:01:30.930Z,18.57
2022-12-18T00:03:58.225Z,15.32
2022-12-18T00:06:26.214Z,17.83
2022-12-18T00:08:53.044Z,17.13
2022-12-18T00:11:21.395Z,17.13
2022-12-18T00:13:48.261Z,16.93
2022-12-18T00:16:21.397Z,17.63
2022-12-18T00:18:49.543Z,18.70
2022-12-18T00:21:16.593Z,18.70
2022-12-18T00:23:47.576Z,19.33
2022-12-18T00:26:26.619Z,19.30
2022-12-18T00:28:53.761Z,17.77
2022-12-18T00:31:23.400Z,20.37
2022-12-18T00:33:54.133Z,17.73
2022-12-18T00:36:30.047Z,20.40
2022-12-18T00:38:58.002Z,18.53
2022-12-18T00:41:43.759Z,19.03
2022-12-18T00:44:12.931Z,18.13
2022-12-18T00:46:39.607Z,19.40
2022-12-18T00:49:07.842Z,18.03
2022-12-18T00:51:34.600Z,20.60
2022-12-18T00:54:01.232Z,20.20
2022-12-18T00:56:28.093Z,20.87
2022-12-18T00:58:55.139Z,19.90
2022-12-18T01:01:22.338Z,19.20
2022-12-18T01:03:49.174Z,19.43
2022-12-18T01:06:18.462Z,21.67
2022-12-18T01:08:48.006Z,19.80
2022-12-18T01:11:20.035Z,23.23
2022-12-18T01:13:46.855Z,20.17
2022-12-18T01:16:14.963Z,21.37
2022-12-18T01:18:41.660Z,20.73
2022-12-18T01:21:10.157Z,20.80
2022-12-18T01:23:37.277Z,21.83
2022-12-18T01:26:12.443Z,23.10
2022-12-18T01:28:39.425Z,19.13
2022-12-18T01:31:19.372Z,19.23
2022-12-18T01:33:48.945Z,17.73
2022-12-18T01:36:35.682Z,18.70
2022-12-18T01:39:07.977Z,19.03
2022-12-18T01:41:54.196Z,20.17
2022-12-18T01:44:59.769Z,20.33
2022-12-18T01:47:51.540Z,17.83
2022-12-18T01:50:22.844Z,17.97
2022-12-18T01:52:54.419Z,18.07
2022-12-18T01:55:24.065Z,18.43
2022-12-18T01:57:52.479Z,19.80
2022-12-18T02:00:21.646Z,18.43
2022-12-18T02:02:49.134Z,20.53
2022-12-18T02:05:18.105Z,22.03
2022-12-18T02:08:15.243Z,19.20
2022-12-18T02:10:46.824Z,26.87
2022-12-18T02:13:33.978Z,24.27
2022-12-18T02:16:19.324Z,18.43
2022-12-18T02:18:50.090Z,21.53
2022-12-18T02:21:58.564Z,22.77
2022-12-18T02:24:41.234Z,20.00
2022-12-18T02:27:08.985Z,21.90
2022-12-18T02:29:40.551Z,22.03
2022-12-18T02:32:10.693Z,18.10
2022-12-18T02:34:39.307Z,15.77
2022-12-18T02:37:10.497Z,17.50
2022-12-18T02:39:39.280Z,19.63
2022-12-18T02:42:09.036Z,17.60
2022-12-18T02:44:45.153Z,17.03
2022-12-18T02:47:17.119Z,16.50
2022-12-18T02:50:03.325Z,18.80
2022-12-18T02:52:34.651Z,16.00
2022-12-18T02:55:20.821Z,16.60
2022-12-18T02:57:51.635Z,16.40
2022-12-18T03:00:23.957Z,16.10
2022-12-18T03:02:50.559Z,15.83
2022-12-18T03:05:18.252Z,15.13
2022-12-18T03:07:52.904Z,15.10
2022-12-18T03:10:23.218Z,15.73
2022-12-18T03:12:55.220Z,14.07
2022-12-18T03:15:29.693Z,14.77
2022-12-18T03:18:00.620Z,14.47
2022-12-18T03:20:28.698Z,15.60
2022-12-18T03:23:01.264Z,14.83
2022-12-18T03:25:29.205Z,13.53
2022-12-18T03:27:58.832Z,14.60
2022-12-18T03:30:27.228Z,14.03
2022-12-18T03:33:05.843Z,16.07
2022-12-18T03:35:35.573Z,14.97
2022-12-18T03:38:02.325Z,16.70
2022-12-18T03:40:36.953Z,15.17
2022-12-18T03:43:10.142Z,14.70
2022-12-18T03:45:45.075Z,14.90
2022-12-18T03:48:18.961Z,14.83
2022-12-18T03:51:01.517Z,15.23
2022-12-18T03:53:38.807Z,14.03
2022-12-18T03:56:06.330Z,14.87
2022-12-18T03:58:34.299Z,14.97
2022-12-18T04:01:06.402Z,12.93
2022-12-18T04:03:33.839Z,14.40
2022-12-18T04:06:01.198Z,14.43
2022-12-18T04:08:28.177Z,15.47
2022-12-18T04:10:54.843Z,14.47
2022-12-18T04:13:28.224Z,15.53
2022-12-18T04:15:56.597Z,13.25
2022-12-18T04:18:23.864Z,18.60
2022-12-18T04:20:50.556Z,15.00
2022-12-18T04:23:17.569Z,15.03
2022-12-18T04:25:44.178Z,30.53
2022-12-18T04:28:10.863Z,24.70
2022-12-18T04:30:37.578Z,18.70
2022-12-18T04:33:04.402Z,14.80
2022-12-18T04:35:31.340Z,13.70
2022-12-18T04:37:57.973Z,13.40
2022-12-18T04:40:24.770Z,13.23
2022-12-18T04:42:51.455Z,12.40
2022-12-18T04:45:18.488Z,13.57
2022-12-18T04:47:45.148Z,11.87
2022-12-18T04:50:11.849Z,13.07
2022-12-18T04:52:38.484Z,14.10
2022-12-18T04:55:09.137Z,12.50
2022-12-18T04:57:39.268Z,12.60
2022-12-18T05:00:07.172Z,15.00
2022-12-18T05:02:33.948Z,13.23
2022-12-18T05:05:00.664Z,14.17
2022-12-18T05:07:27.302Z,14.87
2022-12-18T05:09:53.876Z,12.73
2022-12-18T05:12:20.486Z,13.53
2022-12-18T05:14:47.116Z,14.80
2022-12-18T05:17:13.776Z,12.90
2022-12-18T05:19:40.404Z,13.10
2022-12-18T05:22:08.021Z,13.37
2022-12-18T05:24:34.656Z,12.83
2022-12-18T05:27:01.291Z,12.83
2022-12-18T05:29:27.945Z,12.97
2022-12-18T05:31:54.667Z,12.23
2022-12-18T05:34:21.303Z,13.93
2022-12-18T05:36:48.023Z,11.73
2022-12-18T05:39:14.649Z,13.50
2022-12-18T05:41:41.306Z,12.70
2022-12-18T05:44:08.419Z,13.43
2022-12-18T05:46:35.064Z,12.53
2022-12-18T05:49:02.255Z,12.77
2022-12-18T05:51:28.986Z,11.90
2022-12-18T05:53:55.911Z,13.33
2022-12-18T05:56:23.444Z,14.90
2022-12-18T05:58:53.873Z,13.80
2022-12-18T06:01:24.647Z,13.50
2022-12-18T06:03:51.823Z,14.10
2022-12-18T06:06:21.685Z,15.13
2022-12-18T06:08:48.513Z,16.90
2022-12-18T06:11:22.806Z,14.83
2022-12-18T06:16:25.517Z,14.73
2022-12-18T06:18:52.253Z,14.77
2022-12-18T06:21:19.092Z,16.00
2022-12-18T06:23:45.710Z,16.47
2022-12-18T06:26:13.207Z,15.50
2022-12-18T06:28:39.861Z,18.60
2022-12-18T06:31:07.277Z,16.63
2022-12-18T06:33:34.436Z,15.57
2022-12-18T06:36:03.094Z,15.30
2022-12-18T06:38:29.848Z,18.30
2022-12-18T06:40:56.498Z,18.70
2022-12-18T06:43:23.115Z,18.00
2022-12-18T06:45:53.649Z,16.17
2022-12-18T06:48:21.273Z,18.13
2022-12-18T06:50:48.073Z,16.43
2022-12-18T06:53:15.023Z,16.60
2022-12-18T06:55:41.757Z,15.63
2022-12-18T06:58:08.553Z,14.27
2022-12-18T07:00:37.375Z,15.33
2022-12-18T07:03:04.072Z,14.90
2022-12-18T07:05:30.745Z,13.77
2022-12-18T07:07:57.348Z,13.20
2022-12-18T07:10:23.934Z,30.77
2022-12-18T07:12:50.520Z,14.40
2022-12-18T07:15:17.195Z,13.80
2022-12-18T07:17:43.851Z,14.30
2022-12-18T07:20:10.976Z,12.53
2022-12-18T07:22:37.742Z,14.47
2022-12-18T07:25:04.705Z,14.30
2022-12-18T07:27:31.463Z,13.63
2022-12-18T07:29:58.207Z,13.57
2022-12-18T07:32:24.781Z,13.73
2022-12-18T07:34:51.406Z,13.87
2022-12-18T07:37:18.142Z,12.47
2022-12-18T07:39:45.408Z,12.73
2022-12-18T07:42:30.978Z,11.70
2022-12-18T07:44:58.370Z,12.07
2022-12-18T07:47:25.317Z,12.47
2022-12-18T07:49:52.350Z,12.60
2022-12-18T07:52:24.235Z,12.43
2022-12-18T07:54:52.469Z,11.57
2022-12-18T07:57:48.367Z,11.57
2022-12-18T08:00:06.373Z,12.03
2022-12-18T08:02:33.091Z,11.57
2022-12-18T08:04:59.827Z,11.90
2022-12-18T08:07:26.447Z,12.60
2022-12-18T08:09:53.086Z,10.40
2022-12-18T08:12:19.707Z,10.80
2022-12-18T08:14:46.303Z,12.83
2022-12-18T08:17:12.919Z,12.60
2022-12-18T08:19:39.543Z,12.13
2022-12-18T08:22:06.222Z,12.60
2022-12-18T08:24:32.857Z,12.07
2022-12-18T08:27:27.722Z,11.83
2022-12-18T08:29:46.116Z,11.03
2022-12-18T08:32:12.709Z,11.67
2022-12-18T08:34:39.401Z,12.97
2022-12-18T08:37:05.965Z,12.47
2022-12-18T08:39:32.572Z,15.50
2022-12-18T08:42:17.983Z,13.43
2022-12-18T08:44:44.604Z,13.07
2022-12-18T08:47:11.207Z,12.87
2022-12-18T08:49:37.817Z,14.80
2022-12-18T08:52:04.573Z,13.30
2022-12-18T08:54:31.240Z,12.63
2022-12-18T08:56:57.868Z,33.83
2022-12-18T08:59:24.682Z,15.97
2022-12-18T09:01:51.408Z,14.93
2022-12-18T09:04:18.237Z,13.23
2022-12-18T09:06:44.898Z,12.47
2022-12-18T09:09:12.198Z,12.63
2022-12-18T09:11:38.800Z,11.93
2022-12-18T09:14:05.430Z,12.10
2022-12-18T09:16:35.954Z,12.43
2022-12-18T09:19:04.573Z,12.63
2022-12-18T09:21:37.297Z,12.40
2022-12-18T09:24:05.042Z,13.10
2022-12-18T09:26:35.159Z,10.73
2022-12-18T09:29:03.566Z,12.23
2022-12-18T09:31:30.189Z,11.47
2022-12-18T09:33:57.621Z,11.37
2022-12-18T09:36:24.371Z,11.47
2022-12-18T09:38:51.486Z,12.63
2022-12-18T09:41:33.388Z,12.40
2022-12-18T09:44:03.989Z,10.87
2022-12-18T09:46:34.164Z,12.20
2022-12-18T09:49:04.176Z,11.23
2022-12-18T09:51:38.663Z,11.83
2022-12-18T09:54:21.566Z,12.10
2022-12-18T09:56:48.913Z,11.80
2022-12-18T09:59:22.748Z,12.73
2022-12-18T10:01:49.557Z,10.18
2022-12-18T10:04:16.394Z,11.83
2022-12-18T10:07:08.886Z,11.03
2022-12-18T10:09:44.145Z,11.63
2022-12-18T10:12:39.605Z,10.07
2022-12-18T10:15:16.498Z,10.83
2022-12-18T10:17:53.074Z,10.63
2022-12-18T10:20:37.979Z,11.80
2022-12-18T10:23:14.210Z,11.57
2022-12-18T10:25:55.949Z,13.70
2022-12-18T10:28:22.987Z,12.80
2022-12-18T10:30:49.713Z,11.50
2022-12-18T10:33:19.053Z,11.60
2022-12-18T10:35:46.725Z,12.57
2022-12-18T10:38:13.178Z,10.67
2022-12-18T10:40:55.380Z,11.77
2022-12-18T10:43:25.196Z,12.00
2022-12-18T10:46:10.173Z,12.97
2022-12-18T10:48:40.241Z,12.37
2022-12-18T10:51:10.816Z,11.40
2022-12-18T10:53:40.987Z,12.43
2022-12-18T10:56:07.885Z,12.37
2022-12-18T10:58:36.764Z,24.50
2022-12-18T11:01:16.631Z,12.80
2022-12-18T11:03:48.501Z,17.20
2022-12-18T11:06:25.205Z,13.27
2022-12-18T11:09:00.931Z,11.67
2022-12-18T11:11:27.985Z,22.50
2022-12-18T11:14:04.838Z,13.93
2022-12-18T11:16:37.868Z,13.40
2022-12-18T11:19:35.960Z,11.20
2022-12-18T11:22:05.182Z,12.30
2022-12-18T11:24:34.941Z,11.47
2022-12-18T11:27:04.094Z,14.80
2022-12-18T11:29:43.352Z,14.57
2022-12-18T11:32:16.024Z,11.70
2022-12-18T11:34:46.251Z,10.93
2022-12-18T11:37:14.462Z,26.17
2022-12-18T11:39:57.702Z,13.53
2022-12-18T11:42:59.411Z,11.00
2022-12-18T11:45:30.471Z,11.03
2022-12-18T11:48:26.004Z,18.00
2022-12-18T11:50:55.226Z,20.27
2022-12-18T11:53:22.231Z,15.37
2022-12-18T11:56:04.508Z,14.93
2022-12-18T11:58:47.503Z,13.30
2022-12-18T12:01:23.369Z,11.30
2022-12-18T12:04:13.429Z,11.60
2022-12-18T12:06:49.246Z,13.07
2022-12-18T12:09:34.442Z,12.47
2022-12-18T12:12:31.939Z,12.07
2022-12-18T12:15:45.323Z,11.27
2022-12-18T12:18:30.065Z,11.73
2022-12-18T12:21:18.583Z,12.43
2022-12-18T12:24:13.587Z,13.43
2022-12-18T12:29:38.874Z,11.37
2022-12-18T12:32:25.798Z,16.03
2022-12-18T12:35:11.541Z,12.80
2022-12-18T12:38:14.756Z,12.67
2022-12-18T12:40:56.723Z,12.50
2022-12-18T12:43:40.403Z,13.80
2022-12-18T12:46:12.283Z,12.37
2022-12-18T12:48:57.053Z,11.77
2022-12-18T12:51:30.063Z,12.33
2022-12-18T12:53:58.521Z,12.87
2022-12-18T12:56:30.207Z,13.37
2022-12-18T12:59:39.297Z,12.97
2022-12-18T13:02:21.113Z,12.13
2022-12-18T13:05:03.774Z,12.03
2022-12-18T13:07:36.137Z,11.73
2022-12-18T13:10:26.964Z,11.43
2022-12-18T13:12:57.918Z,10.83
2022-12-18T13:15:24.795Z,12.40
2022-12-18T13:18:06.040Z,11.17
2022-12-18T13:20:37.323Z,12.73
2022-12-18T13:23:25.901Z,10.97
2022-12-18T13:25:53.283Z,10.90
2022-12-18T13:28:25.499Z,13.13
2022-12-18T13:30:55.080Z,12.00
2022-12-18T13:33:23.719Z,11.77
2022-12-18T13:36:01.810Z,12.40
2022-12-18T13:38:36.677Z,11.33
2022-12-18T13:41:05.804Z,10.83
2022-12-18T13:43:37.434Z,11.10
2022-12-18T13:46:24.861Z,11.60
2022-12-18T13:48:55.415Z,10.83
2022-12-18T13:51:23.289Z,10.73
2022-12-18T13:53:53.445Z,10.30
2022-12-18T13:56:27.236Z,10.03
2022-12-18T13:59:25.336Z,10.93
2022-12-18T14:02:00.646Z,11.30
2022-12-18T14:04:36.710Z,10.50
2022-12-18T14:07:21.850Z,9.88
2022-12-18T14:10:12.266Z,8.90
2022-12-18T14:13:00.710Z,10.27
2022-12-18T14:18:10.031Z,10.80
2022-12-18T14:20:36.738Z,10.07
2022-12-18T14:23:03.330Z,12.47
2022-12-18T14:25:31.133Z,11.30
2022-12-18T14:28:15.656Z,10.83
2022-12-18T14:33:24.683Z,11.47
2022-12-18T14:36:02.604Z,10.07
2022-12-18T14:38:37.429Z,11.47
2022-12-18T14:41:15.011Z,12.30
2022-12-18T14:43:44.500Z,11.57
2022-12-18T14:46:38.489Z,11.63
2022-12-18T14:49:26.149Z,11.07
2022-12-18T14:51:55.265Z,12.33
2022-12-18T14:54:23.514Z,15.03
2022-12-18T14:56:52.541Z,11.67
2022-12-18T14:59:26.563Z,17.03
2022-12-18T15:02:06.101Z,12.82
2022-12-18T15:04:40.179Z,12.73
2022-12-18T15:07:11.757Z,9.83
2022-12-18T15:09:40.102Z,10.47
2022-12-18T15:12:23.838Z,11.20
2022-12-18T15:14:52.643Z,10.50
2022-12-18T15:17:22.821Z,10.30
2022-12-18T15:19:53.301Z,14.63
2022-12-18T15:22:24.541Z,12.40
2022-12-18T15:24:51.582Z,11.53
2022-12-18T15:27:39.688Z,14.00
2022-12-18T15:30:06.180Z,13.30
2022-12-18T15:32:33.279Z,13.43
2022-12-18T15:35:25.031Z,11.50
2022-12-18T15:37:55.052Z,12.63
2022-12-18T15:40:23.896Z,12.23
2022-12-18T15:43:12.436Z,11.07
2022-12-18T15:45:39.280Z,12.70
2022-12-18T15:48:19.279Z,11.93
2022-12-18T15:50:46.027Z,11.43
2022-12-18T15:53:12.821Z,13.27
2022-12-18T15:56:01.186Z,11.77
2022-12-18T15:58:28.156Z,11.67
2022-12-18T16:00:56.737Z,11.67
2022-12-18T16:03:23.439Z,10.57
2022-12-18T16:05:50.296Z,13.20
2022-12-18T16:08:16.898Z,14.97
2022-12-18T16:10:43.632Z,12.37
2022-12-18T16:13:17.180Z,12.70
2022-12-18T16:15:43.868Z,11.07
2022-12-18T16:18:10.750Z,11.57
2022-12-18T16:20:37.606Z,12.23
2022-12-18T16:23:04.272Z,13.27
2022-12-18T16:25:31.266Z,12.03
2022-12-18T16:27:58.162Z,10.70
2022-12-18T16:30:28.636Z,11.37
2022-12-18T16:33:00.709Z,12.20
2022-12-18T16:35:28.109Z,12.43
2022-12-18T16:37:54.787Z,12.03
2022-12-18T16:40:21.561Z,11.60
2022-12-18T16:42:48.205Z,12.53
2022-12-18T16:45:17.122Z,10.87
2022-12-18T16:47:44.459Z,10.43
2022-12-18T16:50:11.050Z,11.37
2022-12-18T16:52:38.346Z,13.07
2022-12-18T16:55:05.336Z,12.13
2022-12-18T16:57:31.956Z,13.93
2022-12-18T17:00:04.452Z,12.70
2022-12-18T17:02:32.175Z,12.45
2022-12-18T17:04:59.393Z,22.80
2022-12-18T17:07:27.020Z,13.50
2022-12-18T17:09:54.330Z,12.40
2022-12-18T17:12:21.429Z,11.50
2022-12-18T17:14:48.276Z,12.20
2022-12-18T17:17:23.849Z,11.90
2022-12-18T17:19:51.857Z,10.47
2022-12-18T17:22:18.641Z,11.37
2022-12-18T17:24:47.016Z,11.50
2022-12-18T17:27:13.656Z,11.43
2022-12-18T17:29:46.765Z,11.90
2022-12-18T17:32:14.347Z,11.63
2022-12-18T17:34:41.027Z,12.07
2022-12-18T17:37:08.132Z,12.30
2022-12-18T17:39:34.716Z,10.80
2022-12-18T17:42:01.359Z,11.23
2022-12-18T17:44:27.991Z,10.83
2022-12-18T17:46:54.681Z,12.93
2022-12-18T17:49:21.691Z,11.33
2022-12-18T17:51:48.536Z,11.83
2022-12-18T17:54:15.137Z,12.23
2022-12-18T17:56:41.761Z,12.10
2022-12-18T17:59:08.487Z,13.10
2022-12-18T18:01:38.514Z,13.37
2022-12-18T18:04:09.285Z,12.10
2022-12-18T18:06:39.391Z,11.10
2022-12-18T18:09:13.526Z,13.07
2022-12-18T18:12:01.951Z,12.27
2022-12-18T18:14:28.646Z,11.90
2022-12-18T18:16:57.322Z,12.57
2022-12-18T18:19:31.208Z,12.00
2022-12-18T18:21:57.800Z,15.33
2022-12-18T18:24:25.725Z,11.77
2022-12-18T18:26:56.500Z,11.53
2022-12-18T18:29:26.613Z,12.97
2022-12-18T18:31:54.124Z,12.17
2022-12-18T18:34:26.085Z,13.77
2022-12-18T18:36:52.787Z,11.37
2022-12-18T18:39:19.857Z,12.83
2022-12-18T18:41:48.026Z,14.27
2022-12-18T18:44:15.863Z,12.83
2022-12-18T18:46:42.475Z,12.87
2022-12-18T18:49:09.681Z,12.70
2022-12-18T18:51:36.409Z,12.83
2022-12-18T18:54:03.309Z,13.37
2022-12-18T18:59:18.200Z,15.10
2022-12-18T19:01:45.018Z,13.70
2022-12-18T19:04:11.898Z,13.20
2022-12-18T19:06:41.581Z,12.63
2022-12-18T19:09:08.535Z,13.60
2022-12-18T19:11:53.913Z,13.63
2022-12-18T19:14:20.969Z,14.63
2022-12-18T19:16:47.755Z,13.83
2022-12-18T19:19:14.977Z,13.70
2022-12-18T19:21:41.753Z,13.63
2022-12-18T19:24:10.260Z,15.67
2022-12-18T19:26:37.653Z,15.10
2022-12-18T19:29:06.039Z,15.37
2022-12-18T19:31:36.040Z,14.37
2022-12-18T19:34:05.133Z,15.90
2022-12-18T19:36:32.609Z,15.67
2022-12-18T19:39:01.122Z,16.77
2022-12-18T19:41:31.345Z,20.13
2022-12-18T19:44:05.184Z,16.97
2022-12-18T19:46:35.538Z,17.33
2022-12-18T19:49:02.505Z,16.47
2022-12-18T19:51:30.696Z,18.47
2022-12-18T19:54:01.074Z,18.37
2022-12-18T19:56:30.397Z,17.13
2022-12-18T19:58:57.045Z,18.20
2022-12-18T20:01:24.747Z,17.30
2022-12-18T20:03:52.927Z,17.37
2022-12-18T20:06:26.731Z,17.80
2022-12-18T20:09:00.267Z,18.93
2022-12-18T20:11:27.841Z,16.83
2022-12-18T20:13:54.657Z,18.43
2022-12-18T20:16:21.474Z,17.70
2022-12-18T20:18:49.207Z,17.73
2022-12-18T20:21:16.280Z,18.37
2022-12-18T20:23:43.629Z,16.67
2022-12-18T20:26:10.654Z,17.00
2022-12-18T20:28:37.256Z,16.90
2022-12-18T20:31:08.460Z,20.13
2022-12-18T20:33:37.357Z,19.63
2022-12-18T20:36:06.378Z,16.37
2022-12-18T20:38:38.743Z,16.90
2022-12-18T20:41:15.354Z,16.77
2022-12-18T20:43:42.761Z,16.87
2022-12-18T20:46:10.716Z,16.90
2022-12-18T20:48:41.111Z,17.87
2022-12-18T20:51:10.099Z,16.23
2022-12-18T20:53:37.423Z,16.50
2022-12-18T20:56:08.326Z,15.50
2022-12-18T20:58:35.710Z,16.67
2022-12-18T21:01:08.170Z,17.73
2022-12-18T21:03:39.234Z,18.27
2022-12-18T21:06:06.499Z,18.17
2022-12-18T21:08:33.261Z,16.33
2022-12-18T21:11:36.156Z,16.70
2022-12-18T21:14:03.690Z,17.80
2022-12-18T21:16:30.398Z,21.17
2022-12-18T21:18:57.035Z,17.83
2022-12-18T21:21:26.552Z,17.37
2022-12-18T21:23:53.676Z,17.43
2022-12-18T21:26:25.357Z,16.37
2022-12-18T21:29:02.850Z,15.60
2022-12-18T21:31:37.214Z,19.17
2022-12-18T21:34:05.500Z,19.73
2022-12-18T21:36:32.911Z,18.10
2022-12-18T21:38:59.951Z,19.03
2022-12-18T21:41:46.280Z,17.60
2022-12-18T21:44:15.219Z,18.37
2022-12-18T21:46:44.284Z,19.53
2022-12-18T21:49:12.517Z,17.23
2022-12-18T21:51:39.446Z,17.77
2022-12-18T21:54:06.689Z,17.57
2022-12-18T21:56:44.372Z,17.10
2022-12-18T21:59:13.207Z,17.97
2022-12-18T22:01:40.270Z,18.17
2022-12-18T22:04:06.972Z,18.60
2022-12-18T22:06:33.847Z,17.93
2022-12-18T22:09:00.566Z,20.13
2022-12-18T22:11:27.178Z,19.57
2022-12-18T22:13:54.043Z,18.17
2022-12-18T22:16:20.704Z,19.17
2022-12-18T22:18:50.816Z,18.00
2022-12-18T22:21:29.609Z,17.33
2022-12-18T22:24:00.880Z,19.77
2022-12-18T22:26:28.698Z,19.10
2022-12-18T22:29:14.523Z,20.70
2022-12-18T22:31:41.610Z,20.00
2022-12-18T22:34:09.004Z,19.30
2022-12-18T22:36:54.185Z,20.47
2022-12-18T22:39:23.738Z,19.47
2022-12-18T22:41:51.070Z,21.97
2022-12-18T22:44:18.073Z,19.83
2022-12-18T22:46:52.229Z,20.07
2022-12-18T22:49:35.677Z,19.23
2022-12-18T22:52:09.391Z,20.30
2022-12-18T22:54:36.218Z,20.27
2022-12-18T22:57:02.856Z,20.40
2022-12-18T22:59:30.158Z,19.77
2022-12-18T23:01:59.218Z,20.50
2022-12-18T23:04:36.246Z,20.47
2022-12-18T23:07:05.101Z,22.43
2022-12-18T23:09:32.388Z,21.13
2022-12-18T23:11:59.070Z,20.63
2022-12-18T23:14:27.200Z,20.23
2022-12-18T23:16:53.935Z,21.63
2022-12-18T23:19:21.091Z,20.80
2022-12-18T23:21:50.056Z,19.63
2022-12-18T23:24:16.950Z,19.07
2022-12-18T23:26:43.532Z,23.40
2022-12-18T23:29:10.160Z,20.60
2022-12-18T23:31:38.631Z,21.30
2022-12-18T23:34:06.361Z,20.70
2022-12-18T23:36:45.334Z,19.30
2022-12-18T23:39:15.603Z,19.67
2022-12-18T23:41:56.693Z,21.13
2022-12-18T23:44:23.433Z,18.87
2022-12-18T23:46:50.327Z,19.13
2022-12-18T23:49:17.808Z,20.93
2022-12-18T23:51:44.475Z,21.63
2022-12-18T23:54:22.686Z,20.60
2022-12-18T23:56:59.982Z,19.07
2022-12-18T23:59:26.601Z,19.33
